CheckWX is a tool to help pilots better visualize weather data.  It is not intended as a substitute for an official pre-flight weather briefing.

10:10:18 UTC

VLLN TAF
Luang Namtha Airport
Luang Namtha, Lao People’s Democratic Republic
TAF VLLN 260500Z 2606/2706 24006KT 7000 SCT020 BKN100

Jun-26@
06:00 UTC

Jun-26 @ 06:00 UTC

Jun-27@
06:00 UTC

Jun-27 @ 06:00 UTC

TAF VLLN 260500Z 2606/2706 24006KT 7000 SCT020 BKN100
Wind
  • 240° at 6 KTS
Cloud Levels
  • Scattered at 2,000' AGL
  • Broken at 10,000' AGL